Biotrans — JWPN — position and weather

sailwx.info

Track history (hours):
 
Tides and Currents Weather Stations Pressure Air Temp Water Temp Dewpoint Dewpoint Depression Visibility Wind Speed Wind Dir Waves Ship Positions

Biotrans

Last reported at 2014-Sep-17 06:33 UTC. Time now 2014-Sep-18 05:45 UTC.
Position N 64°47' E 011°05'.

Length 55 m; draft 5.5 m.

Type: Cargo ship. MMSI: 259260000.

Date/timePositionNaut miles runAvg speedWind from/ knotsBaromVisibWave heightAir tempDewpointWater temp
2014-Sep-17 06:33N 64°47' E 011°05'8 7.8
2014-Sep-17 05:34N 64°53' E 011°18'8 8.2
2014-Sep-17 04:34N 64°58' E 011°33'8 8.0
2014-Sep-17 03:31N 65°04' E 011°45'37 7.5
2014-Sep-16 22:33N 65°39' E 012°15'20 3.7
2014-Sep-16 17:13N 65°58' E 012°28'27 7.3
2014-Sep-16 13:32N 66°22' E 012°58'9 8.1
2014-Sep-16 12:28N 66°31' E 012°58'32 8.0
2014-Sep-16 08:30N 66°59' E 013°35'9 8.7
2014-Sep-16 07:26N 67°04' E 013°54'8 8.5
2014-Sep-16 06:32N 67°11' E 014°05'8 8.5
2014-Sep-16 05:34N 67°18' E 014°17'9 8.6
2014-Sep-16 04:34N 67°24' E 014°31'18 8.5
2014-Sep-16 02:27N 67°37' E 015°03'3 0.7
2014-Sep-15 21:32N 67°39' E 014°55'8 7.8
2014-Sep-15 20:28N 67°38' E 014°33'8 8.5
2014-Sep-15 19:28N 67°47' E 014°32'8 7.7
2014-Sep-15 18:24N 67°53' E 014°47'  
2014-Sep-12 09:27N 69°34' E 018°46'7 7.8
2014-Sep-12 08:33N 69°39' E 018°59'6 6.3
2014-Sep-12 07:32N 69°45' E 019°04'  
Track history (hours):
 
Tides and Currents Weather Stations Pressure Air Temp Water Temp Dewpoint Dewpoint Depression Visibility Wind Speed Wind Dir Waves Ship Positions

Biotrans

Last reported at 2014-Sep-17 06:33 UTC. Time now 2014-Sep-18 05:45 UTC.
Position N 64°47' E 011°05'.

Length 55 m; draft 5.5 m.

Type: Cargo ship. MMSI: 259260000.

Date/timePositionNaut miles runAvg speedWind from/ knotsBaromVisibWave heightAir tempDewpointWater temp
2014-Sep-17 06:33N 64°47' E 011°05'8 7.8
2014-Sep-17 05:34N 64°53' E 011°18'8 8.2
2014-Sep-17 04:34N 64°58' E 011°33'8 8.0
2014-Sep-17 03:31N 65°04' E 011°45'37 7.5
2014-Sep-16 22:33N 65°39' E 012°15'20 3.7
2014-Sep-16 17:13N 65°58' E 012°28'27 7.3
2014-Sep-16 13:32N 66°22' E 012°58'9 8.1
2014-Sep-16 12:28N 66°31' E 012°58'32 8.0
2014-Sep-16 08:30N 66°59' E 013°35'9 8.7
2014-Sep-16 07:26N 67°04' E 013°54'8 8.5
2014-Sep-16 06:32N 67°11' E 014°05'8 8.5
2014-Sep-16 05:34N 67°18' E 014°17'9 8.6
2014-Sep-16 04:34N 67°24' E 014°31'18 8.5
2014-Sep-16 02:27N 67°37' E 015°03'3 0.7
2014-Sep-15 21:32N 67°39' E 014°55'8 7.8
2014-Sep-15 20:28N 67°38' E 014°33'8 8.5
2014-Sep-15 19:28N 67°47' E 014°32'8 7.7
2014-Sep-15 18:24N 67°53' E 014°47'  
2014-Sep-12 09:27N 69°34' E 018°46'7 7.8
2014-Sep-12 08:33N 69°39' E 018°59'6 6.3
2014-Sep-12 07:32N 69°45' E 019°04'  

Dump ship's entire track history